Portada
METAR-TAF:

METAR-TAF

Aeropuertos :

Aeropuerto Internacional de Dallas-Fort Worth

Dallas / Fort Worth, Texas, Estados Unidos

latitud: 32-53-49N, longitud: 097-01-19W, altitud: 183 m

Observación

El informe se hizo hace 36 minutos, a las 23:53 UTC
Viento 9 kt del sur
Temperatura 18°C
Humedad 37%
Presión 1017 hPa
Visibilidad: 16.1 km
Escasas nubes a una altura de 25000 ft

METAR: KDFW 162353Z 17009KT 10SM FEW250 18/03 A3004 RMK AO2 SLP170 T01780028 10222 20172 55000 $

Hora: 18:29 (00:29 UTC)

Pronóstico

El informe se hizo hace 1 hora y 6 minutos, a las 23:23 UTC
Pronóstico válido del 17 a las 00 UTC al 18 a las 06 UTC
Viento 11 kt del sur
Visibilidad: 10 km
Nubes dispersas a una altura de 30000 ft
A partir de las 17 a las 2300 UTC
Viento 10 kt del sur-sureste
Visibilidad: 10 km
Cielo nuboso a una altura de 6000 ft

TAF: KDFW 162323Z 1700/1806 19011KT P6SM SCT300 FM172300 16010KT P6SM BKN060

Observaciones y pronósticos meteorológicos de más de 4000 aeropuertos (mensajes METAR y TAF).

Los puntos amarillos y rojos representan las estaciones disponibles.

Ponga el ratón en el punto deseado para ver el nombre de la estación.

Haga clic para ver las observaciones y los pronósticos meteorológicos.

Para cambiar el mapa : haga clic en los botones verdes con una cruz de color negro para hacer un zoom, en el botón verde con un guión para alejar o en las flechas verdes para mapas adyacentes.


METAR-TAF: